Atlanta, Georgia
Current Conditions -  °F | °C
As of 12:52 AM on Wednesday 28 Jan 2015 (Local Time) from KATL Reporting Station
Broken Clouds Broken Clouds  
Wind Chill: 29°   Ceiling: 2500
Heat Index: 37°   Visibility: 10mi
Dew Point: 27°   Wind: 12mph
Humidity: 67%   Direction: 350°N
Pressure: 30.1"   Gusts: NA
Location:  33.75°N, 84.39°W
Report Text: KATL 280552Z 35010KT 10SM BKN025 03/M03 A3010 RMK AO2 SLP198 T00281028 10061 20022 53006
Loading
Personal Weather Stations






























Interactive Weather Map New forecast layout! Learn more

10-Day Weather Forecast

Advertisements
Track Severe Weather on mobile